Time;durP1;ratioP1;P1;durP2;ratioP2;P2;SDS_P1;SDS_P2;PMS_P1;PMS_P2;Temp;Humidity;BMP_temperature;BMP_pressure;BME280_temperature;BME280_humidity;BME280_pressure;Samples;Min_cycle;Max_cycle;Signal;HPM_P1;HPM_P2
2022/03/25 00:02:17;;;;;;;45.47;29.90;;;9.50;68.90;;;;;;5043896;28;20505;-53
2022/03/25 00:05:02;;;;;;;46.50;30.23;;;9.50;68.90;;;;;;5038062;28;20040;-54
2022/03/25 00:07:46;;;;;;;41.90;28.25;;;9.40;68.10;;;;;;5052002;28;20305;-54
2022/03/25 00:10:30;;;;;;;43.80;27.55;;;9.40;67.20;;;;;;5050781;28;20032;-51
2022/03/25 00:13:15;;;;;;;48.10;30.50;;;9.30;66.90;;;;;;5040577;28;20040;-53
2022/03/25 00:15:59;;;;;;;44.35;27.90;;;9.20;66.70;;;;;;5018249;28;20060;-57
2022/03/25 00:18:42;;;;;;;45.63;28.38;;;9.20;66.70;;;;;;5033161;28;20131;-46
2022/03/25 00:21:26;;;;;;;44.60;28.20;;;9.10;66.90;;;;;;5032380;28;20087;-50
2022/03/25 00:24:10;;;;;;;43.08;27.52;;;9.20;67.10;;;;;;5031618;28;20476;-50
2022/03/25 00:26:55;;;;;;;46.28;30.63;;;9.20;67.10;;;;;;5031801;28;20095;-51
2022/03/25 00:29:39;;;;;;;63.70;40.53;;;9.30;67.70;;;;;;5013985;28;20033;-48
2022/03/25 00:32:23;;;;;;;45.27;31.43;;;9.20;68.80;;;;;;5012354;28;20124;-48
2022/03/25 00:35:08;;;;;;;43.28;31.10;;;9.20;68.60;;;;;;5024415;28;20037;-52
2022/03/25 00:37:52;;;;;;;47.42;29.08;;;9.10;69.70;;;;;;5021546;28;20032;-53
2022/03/25 00:40:36;;;;;;;48.40;30.10;;;9.10;69.30;;;;;;5023726;28;20032;-50
2022/03/25 00:43:21;;;;;;;60.40;37.57;;;9.00;69.10;;;;;;5019246;28;20168;-49
2022/03/25 00:46:05;;;;;;;54.55;34.78;;;8.90;69.50;;;;;;5020583;28;20045;-50
2022/03/25 00:48:49;;;;;;;47.65;30.05;;;8.80;70.00;;;;;;5027263;28;20171;-49
2022/03/25 00:51:34;;;;;;;43.38;29.25;;;8.90;70.10;;;;;;5030846;28;20029;-49
2022/03/25 00:54:18;;;;;;;;;;;9.00;69.90;;;;;;5029326;28;20444;-49
2022/03/25 00:57:02;;;;;;;43.47;30.17;;;9.00;71.10;;;;;;5032983;28;19963;-48
2022/03/25 00:59:47;;;;;;;43.00;29.80;;;9.00;72.20;;;;;;5036527;28;20040;-50
2022/03/25 01:02:31;;;;;;;44.55;28.33;;;8.90;71.00;;;;;;5023191;28;20041;-50
2022/03/25 01:05:17;;;;;;;44.40;29.33;;;8.80;70.70;;;;;;5022197;28;20095;-51
2022/03/25 01:08:02;;;;;;;46.60;29.67;;;8.80;70.60;;;;;;5026774;28;20048;-53
2022/03/25 01:10:46;;;;;;;;;;;8.80;70.10;;;;;;5014390;28;20107;-47
2022/03/25 01:13:33;;;;;;;44.03;28.23;;;8.70;72.20;;;;;;5023378;28;19935;-49
2022/03/25 01:16:18;;;;;;;39.78;28.02;;;8.70;71.40;;;;;;5024924;28;20033;-52
2022/03/25 01:19:03;;;;;;;47.78;29.23;;;8.70;71.60;;;;;;5025685;28;20115;-51
2022/03/25 01:21:47;;;;;;;46.17;29.05;;;8.70;71.90;;;;;;5025117;28;20080;-50
2022/03/25 01:24:32;;;;;;;42.00;28.63;;;8.60;71.70;;;;;;5030705;28;20034;-49
2022/03/25 01:27:17;;;;;;;44.53;29.95;;;8.60;71.80;;;;;;5023141;28;20080;-49
2022/03/25 01:30:03;;;;;;;48.63;29.40;;;8.60;72.60;;;;;;5018433;28;20049;-49
2022/03/25 01:32:47;;;;;;;45.60;28.85;;;8.50;73.60;;;;;;5028888;28;20064;-50
2022/03/25 01:35:32;;;;;;;43.03;28.30;;;8.40;74.30;;;;;;5019115;28;20408;-46
2022/03/25 01:38:16;;;;;;;44.10;28.40;;;8.40;73.80;;;;;;5025045;28;20036;-53
2022/03/25 01:41:00;;;;;;;39.83;25.70;;;8.30;73.30;;;;;;5031852;28;20043;-51
2022/03/25 01:44:11;;;;;;;37.80;25.75;;;8.30;71.70;;;;;;5030838;28;20040;-46
2022/03/25 01:46:57;;;;;;;39.78;24.55;;;8.20;69.90;;;;;;5030930;28;20120;-49
2022/03/25 01:49:41;;;;;;;44.92;26.33;;;8.10;69.70;;;;;;5032045;28;20068;-47
2022/03/25 01:52:26;;;;;;;43.85;25.85;;;8.10;70.30;;;;;;5016708;28;20059;-52
2022/03/25 01:55:15;;;;;;;;;;;8.10;71.30;;;;;;5030704;28;20083;-47
2022/03/25 01:57:59;;;;;;;41.25;24.83;;;8.10;71.50;;;;;;5031645;28;20383;-50
2022/03/25 02:00:43;;;;;;;35.17;23.48;;;8.00;71.30;;;;;;5031290;28;20144;-53
2022/03/25 02:03:27;;;;;;;37.50;26.50;;;8.10;70.70;;;;;;5030820;28;20037;-51
2022/03/25 02:06:12;;;;;;;44.15;29.85;;;8.20;71.70;;;;;;5030853;28;20635;-50
2022/03/25 02:08:56;;;;;;;43.47;28.35;;;8.10;73.20;;;;;;5031379;28;20088;-52
2022/03/25 02:11:41;;;;;;;44.17;29.08;;;8.10;74.90;;;;;;5030998;28;20091;-50
2022/03/25 02:14:25;;;;;;;41.70;27.85;;;8.00;76.40;;;;;;5015900;28;20631;-47
2022/03/25 02:17:09;;;;;;;39.40;25.45;;;8.00;76.70;;;;;;5033442;28;20044;-47
2022/03/25 02:19:54;;;;;;;37.40;23.55;;;7.90;74.60;;;;;;5034703;28;20040;-51
2022/03/25 02:22:40;;;;;;;44.75;24.80;;;7.90;72.70;;;;;;5019970;28;20044;-46
2022/03/25 02:25:26;;;;;;;36.58;25.55;;;7.90;72.20;;;;;;5034353;28;20227;-50
2022/03/25 02:28:10;;;;;;;43.83;25.35;;;7.90;72.50;;;;;;5010916;28;20041;-53
2022/03/25 02:30:55;;;;;;;40.53;24.73;;;7.90;72.70;;;;;;5041358;28;20076;-52
2022/03/25 02:33:39;;;;;;;40.88;26.33;;;7.80;73.10;;;;;;5046133;28;20049;-50
2022/03/25 02:36:23;;;;;;;39.83;26.88;;;7.80;72.70;;;;;;5034124;28;20044;-53
2022/03/25 02:39:09;;;;;;;38.20;25.52;;;7.80;73.10;;;;;;5034988;28;20481;-55
2022/03/25 02:41:53;;;;;;;36.25;24.08;;;7.70;73.40;;;;;;5035643;28;20032;-54
2022/03/25 02:44:37;;;;;;;42.53;23.92;;;7.60;72.70;;;;;;5034804;28;20117;-54
2022/03/25 02:47:21;;;;;;;40.42;25.13;;;7.70;72.30;;;;;;5034678;28;20540;-50
2022/03/25 02:50:06;;;;;;;38.07;24.70;;;7.60;72.10;;;;;;5035158;28;20033;-52
2022/03/25 02:52:54;;;;;;;36.65;23.98;;;7.50;72.40;;;;;;5035683;28;20048;-50
2022/03/25 02:55:38;;;;;;;40.75;24.90;;;7.50;72.60;;;;;;5034764;28;20068;-50
2022/03/25 02:58:22;;;;;;;38.30;25.52;;;7.50;72.50;;;;;;5034962;28;20071;-52
2022/03/25 03:01:06;;;;;;;44.65;26.75;;;7.50;73.10;;;;;;5034721;28;20027;-51
2022/03/25 03:03:51;;;;;;;41.35;25.58;;;7.50;73.70;;;;;;5034402;28;20136;-49
2022/03/25 03:06:36;;;;;;;44.78;25.50;;;7.40;74.00;;;;;;5019195;28;20068;-50
2022/03/25 03:09:21;;;;;;;37.78;23.50;;;7.30;73.00;;;;;;5019639;28;20080;-53
2022/03/25 03:12:05;;;;;;;38.50;24.10;;;7.20;73.10;;;;;;5035394;28;20031;-54
2022/03/25 03:14:49;;;;;;;36.40;24.60;;;7.20;72.80;;;;;;5034793;28;20036;-50
2022/03/25 03:17:33;;;;;;;38.15;23.83;;;7.10;72.80;;;;;;5020068;28;20095;-54
2022/03/25 03:20:20;;;;;;;39.80;24.83;;;7.10;73.30;;;;;;5000435;28;20044;-52
2022/03/25 03:23:05;;;;;;;43.17;25.27;;;7.20;73.30;;;;;;5015938;28;20091;-51
2022/03/25 03:25:49;;;;;;;36.33;23.67;;;7.20;73.60;;;;;;5033985;28;20409;-53
2022/03/25 03:28:34;;;;;;;37.20;24.73;;;7.10;73.50;;;;;;4999347;28;20091;-54
2022/03/25 03:31:18;;;;;;;38.20;24.63;;;7.00;73.80;;;;;;5018929;28;20128;-49
2022/03/25 03:34:02;;;;;;;39.40;25.05;;;7.10;74.90;;;;;;5000850;28;20036;-54
2022/03/25 03:36:46;;;;;;;42.67;26.17;;;7.10;74.60;;;;;;5014164;28;20125;-52
2022/03/25 03:39:30;;;;;;;38.47;26.27;;;7.10;75.80;;;;;;5030007;28;20056;-54
2022/03/25 03:42:15;;;;;;;42.60;28.05;;;7.10;76.90;;;;;;5017732;28;20099;-53
2022/03/25 03:44:59;;;;;;;39.83;25.67;;;7.10;77.90;;;;;;5033931;28;20663;-53
2022/03/25 03:47:45;;;;;;;40.08;27.15;;;7.00;77.50;;;;;;5032719;28;20114;-51
2022/03/25 03:50:30;;;;;;;39.25;27.33;;;7.00;78.40;;;;;;5033089;28;20048;-53
2022/03/25 03:53:14;;;;;;;;;;;7.00;79.40;;;;;;5033363;28;20405;-56
2022/03/25 03:55:59;;;;;;;41.08;28.17;;;7.00;79.80;;;;;;5033386;28;19967;-55
2022/03/25 03:58:43;;;;;;;42.88;27.10;;;6.90;80.90;;;;;;5032703;28;20099;-54
2022/03/25 04:01:27;;;;;;;43.15;28.83;;;6.90;81.10;;;;;;5032812;28;20088;-51
2022/03/25 04:04:11;;;;;;;37.60;25.40;;;6.90;80.70;;;;;;5033257;28;20470;-54
2022/03/25 04:06:56;;;;;;;38.22;24.63;;;6.80;79.90;;;;;;5032307;28;20049;-49
2022/03/25 04:09:41;;;;;;;38.97;24.48;;;6.80;79.20;;;;;;5032593;28;20047;-49
2022/03/25 04:12:25;;;;;;;37.35;24.30;;;6.70;78.90;;;;;;4997574;28;20406;-51
2022/03/25 04:15:12;;;;;;;41.42;25.92;;;6.70;78.50;;;;;;5012119;28;20393;-50
2022/03/25 04:17:57;;;;;;;40.65;26.30;;;6.70;78.80;;;;;;5023407;28;20040;-52
2022/03/25 04:20:41;;;;;;;38.55;25.13;;;6.70;79.30;;;;;;5032809;28;20040;-54
2022/03/25 04:23:25;;;;;;;40.80;25.08;;;6.60;79.10;;;;;;5031797;28;20113;-51
2022/03/25 04:26:10;;;;;;;39.75;24.02;;;6.70;77.60;;;;;;5032603;28;20041;-51
2022/03/25 04:28:54;;;;;;;39.88;23.75;;;6.60;76.10;;;;;;5033580;28;20614;-51
2022/03/25 04:31:38;;;;;;;33.85;23.63;;;6.50;76.00;;;;;;5033008;28;20088;-51
2022/03/25 04:34:22;;;;;;;36.17;23.15;;;6.40;76.80;;;;;;5018077;28;20080;-50
2022/03/25 04:37:07;;;;;;;40.13;24.73;;;6.40;75.90;;;;;;5032702;28;20134;-54
2022/03/25 04:39:51;;;;;;;38.20;22.90;;;6.30;76.00;;;;;;5032286;28;20044;-50
2022/03/25 04:42:35;;;;;;;41.30;25.05;;;6.30;76.40;;;;;;5031185;28;20052;-56
2022/03/25 04:45:21;;;;;;;36.33;21.90;;;6.30;76.50;;;;;;5032577;28;20036;-55
2022/03/25 04:48:05;;;;;;;36.13;22.98;;;6.30;76.00;;;;;;5032371;28;20040;-52
2022/03/25 04:50:50;;;;;;;36.20;23.65;;;6.30;75.90;;;;;;5032410;28;20141;-55
2022/03/25 04:53:34;;;;;;;40.67;23.47;;;6.30;76.10;;;;;;4997523;28;20113;-54
2022/03/25 04:56:18;;;;;;;40.60;24.30;;;6.20;75.70;;;;;;5012259;28;20576;-53
2022/03/25 04:59:03;;;;;;;36.45;23.80;;;6.00;77.00;;;;;;5023326;28;20047;-52
2022/03/25 05:01:47;;;;;;;35.13;23.05;;;5.90;77.60;;;;;;5017276;28;20165;-55
2022/03/25 05:04:31;;;;;;;39.60;24.37;;;5.90;77.20;;;;;;5032054;28;20045;-55
2022/03/25 05:07:17;;;;;;;41.20;24.17;;;5.80;77.40;;;;;;5031603;28;20037;-57
2022/03/25 05:10:02;;;;;;;35.95;23.15;;;5.80;77.60;;;;;;5031847;28;20410;-52
2022/03/25 05:12:46;;;;;;;35.65;23.33;;;5.90;77.80;;;;;;5032065;28;20028;-54
2022/03/25 05:15:30;;;;;;;41.22;24.40;;;5.90;77.70;;;;;;5031627;28;20087;-50
2022/03/25 05:18:15;;;;;;;40.53;25.00;;;5.90;77.80;;;;;;5034815;28;20111;-53
2022/03/25 05:21:01;;;;;;;37.85;23.73;;;5.80;77.90;;;;;;5039323;28;20244;-54
2022/03/25 05:23:45;;;;;;;35.58;22.88;;;5.80;78.10;;;;;;5021668;28;20041;-51
2022/03/25 05:26:29;;;;;;;42.78;24.42;;;5.80;78.00;;;;;;5032633;28;20493;-51
2022/03/25 05:29:14;;;;;;;40.67;25.60;;;5.90;77.50;;;;;;5031006;28;20049;-49
2022/03/25 05:31:58;;;;;;;41.33;25.35;;;5.90;77.60;;;;;;5030987;28;20121;-53
2022/03/25 05:34:42;;;;;;;41.08;23.95;;;6.10;77.70;;;;;;5034000;28;20113;-55
2022/03/25 05:37:26;;;;;;;39.15;23.15;;;6.10;77.10;;;;;;5035047;28;20129;-53
2022/03/25 05:40:10;;;;;;;37.03;23.48;;;6.20;77.00;;;;;;5027966;28;20040;-55
2022/03/25 05:42:55;;;;;;;39.85;23.23;;;6.20;77.20;;;;;;5027696;28;20041;-51
2022/03/25 05:45:40;;;;;;;39.78;24.55;;;6.10;76.90;;;;;;5026785;28;20045;-51
2022/03/25 05:48:24;;;;;;;41.25;23.92;;;6.20;76.70;;;;;;5028724;28;20143;-54
2022/03/25 05:51:10;;;;;;;39.55;24.33;;;6.20;76.90;;;;;;5038994;28;20029;-55
2022/03/25 05:53:54;;;;;;;38.10;23.70;;;6.10;77.40;;;;;;5040274;28;20059;-52
2022/03/25 05:56:39;;;;;;;36.17;23.98;;;6.20;77.90;;;;;;5051126;28;20032;-55
2022/03/25 05:59:23;;;;;;;40.72;23.75;;;6.30;77.80;;;;;;5048266;28;20645;-53
2022/03/25 06:02:08;;;;;;;40.80;23.55;;;6.40;77.30;;;;;;5035617;28;20063;-51
2022/03/25 06:04:52;;;;;;;;;;;6.60;77.00;;;;;;5036314;28;20172;-49
2022/03/25 06:07:42;;;;;;;37.67;23.75;;;6.60;77.60;;;;;;5035310;28;20170;-56
2022/03/25 06:10:26;;;;;;;39.33;23.98;;;6.70;77.30;;;;;;5040331;28;20345;-52
2022/03/25 06:13:10;;;;;;;36.33;24.08;;;6.80;76.80;;;;;;5015904;28;20445;-51
2022/03/25 06:15:55;;;;;;;39.08;22.88;;;6.80;76.10;;;;;;5033873;28;20266;-52
2022/03/25 06:18:39;;;;;;;;;;;6.90;75.50;;;;;;5026738;28;20088;-53
2022/03/25 06:21:24;;;;;;;39.47;23.30;;;6.90;74.90;;;;;;4999848;28;19920;-52
2022/03/25 06:24:08;;;;;;;38.53;24.00;;;7.00;75.00;;;;;;5022734;28;20044;-56
2022/03/25 06:26:52;;;;;;;40.03;23.65;;;7.00;74.90;;;;;;5033571;28;20081;-52
2022/03/25 06:29:37;;;;;;;37.20;24.13;;;7.00;74.00;;;;;;5038040;28;20029;-50
2022/03/25 06:32:22;;;;;;;47.65;25.85;;;7.10;74.60;;;;;;5040140;28;20060;-56
2022/03/25 06:35:07;;;;;;;35.75;24.02;;;7.10;74.50;;;;;;5020776;28;20097;-54
2022/03/25 06:37:55;;;;;;;42.63;24.95;;;7.20;74.80;;;;;;5035180;28;20109;-49
2022/03/25 06:40:40;;;;;;;44.03;24.73;;;7.30;75.00;;;;;;5035569;28;20140;-51
2022/03/25 06:43:24;;;;;;;38.83;23.70;;;7.30;75.00;;;;;;5015510;28;20168;-53
2022/03/25 06:46:08;;;;;;;41.70;26.13;;;7.30;74.70;;;;;;5029919;28;20544;-53
2022/03/25 06:48:52;;;;;;;42.03;24.38;;;7.40;74.00;;;;;;5046656;28;20036;-52
2022/03/25 06:51:37;;;;;;;42.50;25.27;;;7.40;74.10;;;;;;5039964;28;20393;-52
2022/03/25 06:54:21;;;;;;;38.42;23.50;;;7.50;74.20;;;;;;5032975;28;20040;-55
2022/03/25 06:57:06;;;;;;;45.28;27.58;;;7.50;73.90;;;;;;5033136;28;20037;-55
2022/03/25 06:59:51;;;;;;;46.03;27.60;;;7.70;73.90;;;;;;5031775;28;20163;-52
2022/03/25 07:02:35;;;;;;;52.38;32.97;;;7.70;73.60;;;;;;5032548;28;20044;-55
2022/03/25 07:05:21;;;;;;;43.83;25.15;;;7.80;73.60;;;;;;5030657;28;20123;-52
2022/03/25 07:08:06;;;;;;;37.72;23.40;;;7.90;72.90;;;;;;5035110;28;20036;-54
2022/03/25 07:10:50;;;;;;;;;;;7.90;72.90;;;;;;5030893;28;20067;-56
2022/03/25 07:13:35;;;;;;;40.38;22.83;;;8.00;72.70;;;;;;5033980;28;19924;-51
2022/03/25 07:16:19;;;;;;;37.60;22.38;;;7.90;72.80;;;;;;5016352;28;20060;-50
2022/03/25 07:19:04;;;;;;;42.38;23.58;;;7.70;73.70;;;;;;5033659;28;20405;-54
2022/03/25 07:21:48;;;;;;;34.38;22.90;;;7.80;73.70;;;;;;5033620;28;20571;-53
2022/03/25 07:24:32;;;;;;;38.42;24.08;;;8.00;73.10;;;;;;5033927;28;20099;-56
2022/03/25 07:27:16;;;;;;;36.40;22.90;;;8.20;73.00;;;;;;5032693;28;20106;-52
2022/03/25 07:30:00;;;;;;;38.83;24.05;;;8.30;72.70;;;;;;5018058;28;20033;-53
2022/03/25 07:32:45;;;;;;;34.17;24.05;;;8.50;72.10;;;;;;5030438;28;20393;-50
2022/03/25 07:35:29;;;;;;;;;;;8.50;71.80;;;;;;5033278;28;20113;-53
2022/03/25 07:38:13;;;;;;;41.35;22.88;;;8.50;72.10;;;;;;5040749;28;19916;-53
2022/03/25 07:40:57;;;;;;;38.93;24.57;;;8.60;71.70;;;;;;5024448;28;20167;-50
2022/03/25 07:43:41;;;;;;;34.25;21.95;;;8.80;71.60;;;;;;5026381;28;20040;-51
2022/03/25 07:46:29;;;;;;;35.25;23.30;;;8.90;72.20;;;;;;4997923;28;20750;-55
2022/03/25 07:49:13;;;;;;;39.35;25.00;;;9.00;71.00;;;;;;5025402;28;20041;-54
2022/03/25 07:51:57;;;;;;;36.10;23.27;;;9.10;70.40;;;;;;5031960;28;20103;-51
2022/03/25 07:54:41;;;;;;;40.55;25.15;;;9.20;70.30;;;;;;5035514;28;20040;-54
2022/03/25 07:57:25;;;;;;;42.95;23.38;;;9.30;69.50;;;;;;5015837;28;20041;-52
2022/03/25 08:00:13;;;;;;;45.33;23.63;;;9.40;69.00;;;;;;5029107;28;20040;-54
2022/03/25 08:02:57;;;;;;;34.00;23.20;;;9.40;68.20;;;;;;5031969;28;20027;-55
2022/03/25 08:05:42;;;;;;;35.37;23.00;;;9.30;68.80;;;;;;5032226;28;20037;-55
2022/03/25 08:08:26;;;;;;;32.83;22.50;;;9.40;68.90;;;;;;5030074;28;20116;-52
2022/03/25 08:11:11;;;;;;;40.10;23.15;;;9.60;68.00;;;;;;5036263;28;20043;-55
2022/03/25 08:13:55;;;;;;;36.78;23.27;;;9.70;67.40;;;;;;5024531;28;20508;-55
2022/03/25 08:16:40;;;;;;;37.73;22.87;;;9.90;66.60;;;;;;5028977;28;20056;-56
2022/03/25 08:19:24;;;;;;;38.70;24.13;;;10.00;66.00;;;;;;5015711;28;20126;-54
2022/03/25 08:22:08;;;;;;;40.80;23.67;;;10.00;65.90;;;;;;5032322;28;20099;-50
2022/03/25 08:28:00;;;;;;;41.42;25.35;;;10.30;65.30;;;;;;5016697;28;20447;-52
2022/03/25 08:30:46;;;;;;;42.97;24.65;;;10.30;65.80;;;;;;5031737;28;20091;-53
2022/03/25 08:33:30;;;;;;;44.88;23.55;;;10.40;65.60;;;;;;5030205;28;20158;-57
2022/03/25 08:36:17;;;;;;;47.25;26.05;;;10.40;65.30;;;;;;5032953;28;20049;-54
2022/03/25 08:39:01;;;;;;;37.88;24.75;;;10.60;65.10;;;;;;5032286;28;20095;-55
2022/03/25 08:41:45;;;;;;;37.33;24.20;;;10.60;65.40;;;;;;5033127;28;20507;-56
2022/03/25 08:44:30;;;;;;;44.00;25.25;;;10.70;65.20;;;;;;5032057;28;20449;-54
2022/03/25 08:47:14;;;;;;;43.35;25.58;;;10.80;64.90;;;;;;5037193;28;20087;-54
2022/03/25 08:49:58;;;;;;;41.47;24.55;;;11.00;65.10;;;;;;5040154;28;20040;-55
2022/03/25 08:52:44;;;;;;;39.80;24.98;;;11.00;65.70;;;;;;5032632;28;20385;-52
2022/03/25 08:55:29;;;;;;;37.70;24.55;;;11.10;65.50;;;;;;5044425;28;20442;-54
2022/03/25 08:58:13;;;;;;;;;;;11.20;65.30;;;;;;5034290;28;20175;-54
2022/03/25 09:00:58;;;;;;;43.28;24.67;;;11.40;65.60;;;;;;5014591;28;19929;-54
2022/03/25 09:03:42;;;;;;;40.20;26.10;;;11.50;65.20;;;;;;5029698;28;20520;-55
2022/03/25 09:06:26;;;;;;;41.70;25.37;;;11.60;65.30;;;;;;5025766;28;20091;-52
2022/03/25 09:09:10;;;;;;;40.67;25.63;;;11.70;65.00;;;;;;5031489;28;20076;-53
2022/03/25 09:11:54;;;;;;;36.53;25.30;;;11.90;64.70;;;;;;5031674;28;20040;-51
2022/03/25 09:14:39;;;;;;;44.65;25.95;;;11.90;64.40;;;;;;5016442;28;20548;-54
2022/03/25 09:17:25;;;;;;;41.30;23.65;;;12.10;64.60;;;;;;5030981;28;20037;-53
2022/03/25 09:20:10;;;;;;;38.90;24.88;;;12.20;64.50;;;;;;5031427;28;20055;-52
2022/03/25 09:22:54;;;;;;;;;;;12.40;63.90;;;;;;5032365;28;20032;-52
2022/03/25 09:25:38;;;;;;;35.85;24.13;;;12.60;63.20;;;;;;5031191;28;19920;-52
2022/03/25 09:28:23;;;;;;;37.38;24.20;;;12.70;63.20;;;;;;5035905;28;20040;-56
2022/03/25 09:31:07;;;;;;;37.30;23.50;;;12.80;63.20;;;;;;5036056;28;20112;-50
2022/03/25 09:35:08;;;;;;;32.80;23.30;;;12.70;62.80;;;;;;5033163;28;20044;-53
2022/03/25 09:36:56;;;;;;;41.58;24.05;;;13.00;62.10;;;;;;5034573;28;20045;-56
2022/03/25 09:39:40;;;;;;;43.00;26.13;;;13.00;61.60;;;;;;5036178;28;20040;-52
2022/03/25 09:42:25;;;;;;;37.30;23.52;;;13.10;61.60;;;;;;5034621;28;20111;-55
2022/03/25 09:45:12;;;;;;;36.75;22.80;;;13.20;61.20;;;;;;5035105;28;20044;-58
2022/03/25 09:47:56;;;;;;;39.35;23.52;;;13.40;60.40;;;;;;5034930;28;20036;-58
2022/03/25 09:50:41;;;;;;;33.97;21.83;;;13.40;58.80;;;;;;5032881;28;20110;-57
2022/03/25 09:53:29;;;;;;;35.25;22.98;;;13.40;56.80;;;;;;5025962;28;20036;-53
2022/03/25 09:56:15;;;;;;;37.67;23.02;;;13.30;57.00;;;;;;5026836;28;20041;-55
2022/03/25 09:59:00;;;;;;;34.60;22.48;;;13.40;56.80;;;;;;5041847;28;20050;-52
2022/03/25 10:01:44;;;;;;;33.75;19.92;;;13.40;56.80;;;;;;5018768;28;20064;-54
2022/03/25 10:04:39;;;;;;;32.28;18.27;;;13.60;62.50;;;;;;5036838;28;20068;-56
2022/03/25 10:07:30;;;;;;;42.40;23.52;;;13.70;62.10;;;;;;5018292;28;20091;-53
2022/03/25 10:10:17;;;;;;;31.27;21.52;;;14.10;59.50;;;;;;5032816;28;20184;-54
2022/03/25 10:13:04;;;;;;;33.83;21.85;;;14.20;57.90;;;;;;5032089;28;20031;-58
2022/03/25 10:15:48;;;;;;;31.08;21.80;;;14.30;59.40;;;;;;5034869;28;20032;-57
2022/03/25 10:18:32;;;;;;;31.73;20.73;;;14.30;58.50;;;;;;5033998;28;20455;-56
2022/03/25 10:21:16;;;;;;;37.00;20.98;;;14.50;55.60;;;;;;5035251;28;20099;-57
2022/03/25 10:24:00;;;;;;;30.52;19.42;;;14.50;55.40;;;;;;5019681;28;20060;-56
2022/03/25 10:26:45;;;;;;;35.00;21.23;;;14.60;56.10;;;;;;5035493;28;20059;-56
2022/03/25 10:29:30;;;;;;;29.58;19.67;;;14.70;55.50;;;;;;5033810;28;20044;-58
2022/03/25 10:32:18;;;;;;;31.40;19.67;;;14.70;55.50;;;;;;5033300;28;20093;-56
2022/03/25 10:35:20;;;;;;;34.30;18.73;;;14.90;57.60;;;;;;5030586;28;20040;-58
2022/03/25 10:38:05;;;;;;;32.08;17.17;;;15.10;55.80;;;;;;5033796;28;20043;-54
2022/03/25 10:40:54;;;;;;;23.83;15.57;;;15.30;55.00;;;;;;5026559;28;20067;-56
2022/03/25 10:43:50;;;;;;;25.17;15.98;;;15.50;54.50;;;;;;5033961;28;20037;-56
2022/03/25 10:46:46;;;;;;;24.73;15.90;;;15.40;54.50;;;;;;5032847;28;20040;-57
2022/03/25 10:49:39;;;;;;;27.23;16.95;;;15.30;53.30;;;;;;5028448;28;20092;-55
2022/03/25 10:52:26;;;;;;;26.05;16.33;;;15.40;53.90;;;;;;5023125;28;20029;-59
2022/03/25 10:55:21;;;;;;;25.88;16.10;;;15.20;52.70;;;;;;5039715;28;20036;-58
2022/03/25 10:58:08;;;;;;;26.35;15.98;;;15.30;54.40;;;;;;5035665;28;20114;-52
2022/03/25 11:00:52;;;;;;;31.52;16.20;;;15.50;55.10;;;;;;5014506;28;20121;-56
2022/03/25 11:03:37;;;;;;;25.33;16.17;;;15.60;55.60;;;;;;5023314;28;20444;-57
2022/03/25 11:06:22;;;;;;;27.90;16.58;;;15.60;54.90;;;;;;5029000;28;20083;-54
2022/03/25 11:09:08;;;;;;;28.17;15.75;;;15.50;52.70;;;;;;5033515;28;20095;-56
2022/03/25 11:11:53;;;;;;;33.60;17.55;;;15.40;53.10;;;;;;5032185;28;20039;-59
2022/03/25 11:14:38;;;;;;;29.75;17.35;;;15.40;54.00;;;;;;5028078;28;20083;-56
2022/03/25 11:17:22;;;;;;;24.27;15.63;;;15.40;54.60;;;;;;5011574;28;20049;-58
2022/03/25 11:20:08;;;;;;;25.85;16.20;;;15.50;54.70;;;;;;5024071;28;20275;-56
2022/03/25 11:23:09;;;;;;;24.33;16.20;;;15.70;54.60;;;;;;5015328;28;20110;-56
2022/03/25 11:25:56;;;;;;;26.80;15.65;;;15.90;53.80;;;;;;5026165;28;20052;-57
2022/03/25 11:28:42;;;;;;;23.20;16.70;;;15.90;53.50;;;;;;5022849;28;20068;-58
2022/03/25 11:31:26;;;;;;;27.48;16.70;;;15.90;51.60;;;;;;5018688;28;20059;-55
2022/03/25 11:34:10;;;;;;;24.13;15.90;;;15.70;48.50;;;;;;5033870;28;20032;-56
2022/03/25 11:37:24;;;;;;;29.90;17.35;;;15.80;49.80;;;;;;5033658;28;20059;-58
2022/03/25 11:40:15;;;;;;;30.13;17.23;;;15.90;51.70;;;;;;5034608;28;20561;-57
2022/03/25 11:43:11;;;;;;;33.30;19.63;;;15.90;53.30;;;;;;5032830;28;20048;-57
2022/03/25 11:45:58;;;;;;;29.10;17.20;;;15.90;53.60;;;;;;5032480;28;20103;-55
2022/03/25 11:48:42;;;;;;;28.77;19.25;;;15.90;54.40;;;;;;5031589;28;20064;-58
2022/03/25 11:51:29;;;;;;;29.87;19.43;;;15.70;54.70;;;;;;5026597;28;20125;-56
2022/03/25 11:54:37;;;;;;;24.73;17.23;;;15.70;55.30;;;;;;5027172;28;20188;-55
2022/03/25 11:57:23;;;;;;;26.88;17.50;;;15.60;55.00;;;;;;5012401;28;20092;-56
2022/03/25 12:00:11;;;;;;;28.67;19.25;;;15.70;54.80;;;;;;5033328;28;20099;-57
2022/03/25 12:03:03;;;;;;;34.80;22.38;;;15.80;54.70;;;;;;5033273;28;20084;-55
2022/03/25 12:06:01;;;;;;;31.83;19.10;;;16.00;54.60;;;;;;5032747;28;20155;-56
2022/03/25 12:09:15;;;;;;;35.28;21.80;;;16.10;55.50;;;;;;5017770;28;20045;-57
2022/03/25 12:12:00;;;;;;;33.63;23.25;;;16.10;55.80;;;;;;5018032;28;20678;-57
2022/03/25 12:15:04;;;;;;;29.48;22.00;;;16.00;56.30;;;;;;5033063;28;20616;-58
2022/03/25 12:17:50;;;;;;;49.60;25.83;;;16.20;56.60;;;;;;5019063;28;20032;-56
2022/03/25 12:20:40;;;;;;;41.15;26.73;;;16.30;57.10;;;;;;5017920;28;20041;-55
2022/03/25 12:23:25;;;;;;;35.72;25.75;;;16.40;56.80;;;;;;5032432;28;20091;-58
2022/03/25 12:26:09;;;;;;;41.15;27.95;;;16.40;57.10;;;;;;5032130;28;20472;-56
2022/03/25 12:28:53;;;;;;;41.23;26.37;;;16.40;56.90;;;;;;5006981;28;20045;-58
2022/03/25 12:31:38;;;;;;;42.13;27.45;;;16.30;57.70;;;;;;5032617;28;20279;-56
2022/03/25 12:34:40;;;;;;;36.55;25.83;;;16.40;56.60;;;;;;5026189;28;20567;-55
2022/03/25 12:37:46;;;;;;;35.55;26.48;;;16.40;56.20;;;;;;5023042;28;20440;-57
2022/03/25 12:40:34;;;;;;;46.38;28.05;;;16.50;55.50;;;;;;5024636;28;20557;-56
2022/03/25 12:43:18;;;;;;;40.65;26.52;;;16.60;56.00;;;;;;5019067;28;20107;-54
2022/03/25 12:46:10;;;;;;;37.63;25.73;;;16.70;55.70;;;;;;5022506;28;20057;-54
2022/03/25 12:49:05;;;;;;;37.03;26.10;;;16.90;54.90;;;;;;5030878;28;20155;-54
2022/03/25 12:51:56;;;;;;;43.22;26.90;;;16.60;55.20;;;;;;5026272;28;20106;-57
2022/03/25 12:54:40;;;;;;;35.97;23.77;;;16.50;55.80;;;;;;5031913;28;20033;-56
2022/03/25 12:57:32;;;;;;;31.73;23.17;;;16.40;54.80;;;;;;5031877;28;20444;-57
2022/03/25 13:00:17;;;;;;;35.40;23.75;;;16.30;54.40;;;;;;5031187;28;20045;-55
2022/03/25 13:03:01;;;;;;;31.90;24.38;;;16.30;54.30;;;;;;5032004;28;20051;-57
2022/03/25 13:05:46;;;;;;;34.30;23.33;;;16.30;54.00;;;;;;5031520;28;20065;-56
2022/03/25 13:08:30;;;;;;;32.78;22.58;;;16.40;53.70;;;;;;5017327;28;20053;-57
2022/03/25 13:11:14;;;;;;;30.63;24.90;;;16.80;53.80;;;;;;5031742;28;20044;-58
2022/03/25 13:13:58;;;;;;;40.35;25.13;;;17.00;54.30;;;;;;5021874;28;20021;-59
2022/03/25 13:16:47;;;;;;;39.05;23.58;;;17.30;52.80;;;;;;5019654;28;20076;-57
2022/03/25 13:19:32;;;;;;;35.63;25.77;;;17.50;52.60;;;;;;5032054;28;20113;-58
2022/03/25 13:22:20;;;;;;;35.88;24.30;;;17.70;53.10;;;;;;5031203;28;20048;-57
2022/03/25 13:25:05;;;;;;;41.10;24.25;;;18.00;52.50;;;;;;5032584;28;20462;-58
2022/03/25 13:27:50;;;;;;;35.53;23.63;;;18.20;52.40;;;;;;5032081;28;20040;-54
2022/03/25 13:30:42;;;;;;;33.83;23.00;;;18.10;52.10;;;;;;5016574;28;20397;-57
2022/03/25 13:33:30;;;;;;;33.20;21.92;;;17.90;50.90;;;;;;5031818;28;20471;-56
2022/03/25 13:36:16;;;;;;;33.83;21.63;;;17.50;50.50;;;;;;5030876;28;20064;-55
2022/03/25 13:39:14;;;;;;;37.75;24.95;;;17.80;52.50;;;;;;5001142;28;20667;-55
2022/03/25 13:42:09;;;;;;;35.13;24.27;;;17.90;51.70;;;;;;5025210;28;20448;-56
2022/03/25 13:45:04;;;;;;;35.35;23.73;;;18.30;51.20;;;;;;5023656;28;20048;-55
2022/03/25 13:48:19;;;;;;;;;;;18.20;50.90;;;;;;5030571;28;20040;-56
2022/03/25 13:51:20;;;;;;;34.10;23.05;;;17.90;51.20;;;;;;5028246;28;20003;-57
2022/03/25 13:54:14;;;;;;;38.10;25.08;;;18.00;51.60;;;;;;5031089;28;20440;-57
2022/03/25 13:57:04;;;;;;;34.17;24.17;;;18.20;51.70;;;;;;5030808;28;20072;-58
2022/03/25 13:59:48;;;;;;;36.92;24.70;;;18.30;51.90;;;;;;5011833;28;20172;-57
2022/03/25 14:02:32;;;;;;;36.33;24.77;;;18.30;51.10;;;;;;5029044;28;20025;-56
2022/03/25 14:05:23;;;;;;;35.55;25.33;;;18.20;51.40;;;;;;5017174;28;20120;-57
2022/03/25 14:08:10;;;;;;;36.33;24.40;;;18.10;51.40;;;;;;5031756;28;20083;-54
2022/03/25 14:10:54;;;;;;;88.07;30.05;;;18.20;51.90;;;;;;5016359;28;20064;-57
2022/03/25 14:13:56;;;;;;;37.90;23.73;;;18.30;51.90;;;;;;5019082;28;20024;-53
2022/03/25 14:16:40;;;;;;;32.78;24.25;;;18.40;51.30;;;;;;5035214;28;20095;-54